Time;durP1;ratioP1;P1;durP2;ratioP2;P2;SDS_P1;SDS_P2;PMS_P1;PMS_P2;Temp;Humidity;BMP_temperature;BMP_pressure;BME280_temperature;BME280_humidity;BME280_pressure;Samples;Min_cycle;Max_cycle;Signal;HPM_P1;HPM_P2
2022/02/17 00:01:13;;;;;;;12.30;6.72;;;;;;;;;;4847699;29;20053;-72
2022/02/17 00:03:39;;;;;;;16.02;9.27;;;;;;;;;;4852021;29;20034;-72
2022/02/17 00:06:05;;;;;;;14.00;8.65;;;;;;;;;;4841855;29;20049;-72
2022/02/17 00:08:31;;;;;;;11.13;7.10;;;;;;;;;;4840908;29;20117;-72
2022/02/17 00:10:57;;;;;;;10.02;6.28;;;;;;;;;;4838157;29;20073;-71
2022/02/17 00:13:23;;;;;;;13.90;6.80;;;;;;;;;;4840966;29;20038;-71
2022/02/17 00:15:49;;;;;;;11.73;6.88;;;;;;;;;;4837917;29;20074;-72
2022/02/17 00:18:23;;;;;;;8.77;4.30;;;;;;;;;;4847208;29;20121;-72
2022/02/17 00:20:55;;;;;;;9.38;5.05;;;;;;;;;;4834545;29;20117;-72
2022/02/17 00:23:21;;;;;;;;;;;;;;;;;;4830847;29;20042;-71
2022/02/17 00:25:47;;;;;;;13.95;10.30;;;;;;;;;;4855092;29;20373;-71
2022/02/17 00:28:13;;;;;;;15.80;9.93;;;;;;;;;;4855137;29;20880;-71
2022/02/17 00:30:39;;;;;;;11.38;6.72;;;;;;;;;;4841068;29;20132;-72
2022/02/17 00:33:06;;;;;;;12.13;5.72;;;;;;;;;;4840346;29;20925;-72
2022/02/17 00:35:33;;;;;;;11.27;6.25;;;;;;;;;;4846516;29;20033;-72
2022/02/17 00:37:59;;;;;;;9.23;5.03;;;;;;;;;;4855957;29;20100;-72
2022/02/17 00:40:25;;;;;;;7.88;4.55;;;;;;;;;;4844551;29;20085;-72
2022/02/17 00:42:51;;;;;;;8.20;5.00;;;;;;;;;;4852095;29;20046;-72
2022/02/17 00:45:17;;;;;;;9.75;5.45;;;;;;;;;;4843614;29;20038;-72
2022/02/17 00:47:43;;;;;;;7.75;4.45;;;;;;;;;;4842383;29;20137;-72
2022/02/17 00:50:10;;;;;;;8.70;6.07;;;;;;;;;;4841694;29;20029;-72
2022/02/17 00:52:36;;;;;;;9.93;4.82;;;;;;;;;;4851793;29;20030;-72
2022/02/17 00:55:02;;;;;;;7.72;4.72;;;;;;;;;;4836962;29;20132;-72
2022/02/17 00:57:28;;;;;;;11.02;5.53;;;;;;;;;;4845015;29;20133;-72
2022/02/17 00:59:54;;;;;;;10.30;5.55;;;;;;;;;;4846893;29;20470;-71
2022/02/17 01:02:20;;;;;;;9.18;6.00;;;;;;;;;;4859188;29;20037;-72
2022/02/17 01:04:46;;;;;;;9.45;5.85;;;;;;;;;;4852941;29;20037;-72
2022/02/17 01:07:12;;;;;;;8.10;5.30;;;;;;;;;;4840535;29;20057;-72
2022/02/17 01:09:38;;;;;;;7.63;4.43;;;;;;;;;;4853968;29;20120;-72
2022/02/17 01:12:04;;;;;;;9.50;5.20;;;;;;;;;;4844827;29;20049;-72
2022/02/17 01:14:30;;;;;;;12.32;6.07;;;;;;;;;;4850344;29;20034;-72
2022/02/17 01:16:56;;;;;;;11.30;6.30;;;;;;;;;;4856930;29;20044;-71
2022/02/17 01:19:23;;;;;;;12.38;7.60;;;;;;;;;;4858692;29;20387;-72
2022/02/17 01:21:49;;;;;;;13.70;7.95;;;;;;;;;;4842474;29;20050;-72
2022/02/17 01:24:15;;;;;;;11.93;7.93;;;;;;;;;;4843520;29;20076;-72
2022/02/17 01:26:41;;;;;;;11.65;8.57;;;;;;;;;;4843590;29;20080;-72
2022/02/17 01:29:07;;;;;;;13.27;7.70;;;;;;;;;;4842138;29;20079;-71
2022/02/17 01:31:33;;;;;;;12.90;7.65;;;;;;;;;;4840800;29;20053;-72
2022/02/17 01:33:59;;;;;;;14.65;8.82;;;;;;;;;;4855316;29;20802;-72
2022/02/17 01:36:25;;;;;;;14.07;8.15;;;;;;;;;;4842881;29;20040;-72
2022/02/17 01:38:51;;;;;;;14.15;8.95;;;;;;;;;;4843860;29;20034;-71
2022/02/17 01:41:17;;;;;;;13.13;8.98;;;;;;;;;;4852093;29;20084;-72
2022/02/17 01:43:43;;;;;;;12.88;11.50;;;;;;;;;;4848260;29;20038;-71
2022/02/17 01:46:10;;;;;;;16.00;11.75;;;;;;;;;;4853951;29;20456;-72
2022/02/17 01:48:36;;;;;;;18.75;14.00;;;;;;;;;;4839566;29;20112;-72
2022/02/17 01:51:02;;;;;;;18.92;14.50;;;;;;;;;;4838648;29;20038;-72
2022/02/17 01:53:30;;;;;;;19.38;14.30;;;;;;;;;;4843162;29;20116;-72
2022/02/17 01:55:57;;;;;;;25.00;20.23;;;;;;;;;;4842511;29;20086;-72
2022/02/17 01:58:23;;;;;;;17.00;13.60;;;;;;;;;;4838754;29;20141;-71
2022/02/17 02:00:49;;;;;;;16.73;13.10;;;;;;;;;;4841472;29;20029;-72
2022/02/17 02:03:15;;;;;;;20.38;17.08;;;;;;;;;;4839755;29;20062;-72
2022/02/17 02:05:42;;;;;;;19.58;13.65;;;;;;;;;;4839004;29;20097;-72
2022/02/17 02:08:09;;;;;;;24.10;16.23;;;;;;;;;;4826748;29;20038;-72
2022/02/17 02:10:35;;;;;;;14.40;11.85;;;;;;;;;;4851496;29;20068;-72
2022/02/17 02:13:01;;;;;;;16.17;11.32;;;;;;;;;;4842897;29;20053;-72
2022/02/17 02:15:28;;;;;;;16.20;12.77;;;;;;;;;;4839052;29;20512;-72
2022/02/17 02:17:54;;;;;;;15.57;11.30;;;;;;;;;;4840467;29;20062;-72
2022/02/17 02:20:21;;;;;;;17.33;12.25;;;;;;;;;;4843309;29;20064;-72
2022/02/17 02:22:47;;;;;;;19.50;11.88;;;;;;;;;;4847065;29;20049;-72
2022/02/17 02:25:13;;;;;;;15.80;10.25;;;;;;;;;;4848004;29;20101;-72
2022/02/17 02:27:39;;;;;;;13.55;9.82;;;;;;;;;;4848817;29;20048;-71
2022/02/17 02:30:07;;;;;;;17.70;11.63;;;;;;;;;;4839073;29;20110;-72
2022/02/17 02:32:33;;;;;;;18.40;13.35;;;;;;;;;;4840448;29;20125;-72
2022/02/17 02:34:59;;;;;;;20.27;14.25;;;;;;;;;;4838922;29;20723;-72
2022/02/17 02:37:26;;;;;;;20.52;12.23;;;;;;;;;;4839878;29;20038;-72
2022/02/17 02:39:52;;;;;;;20.45;14.75;;;;;;;;;;4857186;29;20064;-72
2022/02/17 02:42:21;;;;;;;19.33;14.93;;;;;;;;;;4845972;29;20046;-72
2022/02/17 02:44:47;;;;;;;31.27;23.50;;;;;;;;;;4820617;29;20431;-72
2022/02/17 02:47:13;;;;;;;11.48;9.55;;;;;;;;;;4849580;29;20053;-72
2022/02/17 02:49:39;;;;;;;11.30;6.65;;;;;;;;;;4837854;29;20038;-72
2022/02/17 02:52:05;;;;;;;9.30;6.88;;;;;;;;;;4851746;29;20033;-72
2022/02/17 02:54:31;;;;;;;8.80;6.47;;;;;;;;;;4842252;29;20033;-72
2022/02/17 02:56:57;;;;;;;11.43;7.95;;;;;;;;;;4842311;29;20123;-72
2022/02/17 02:59:24;;;;;;;17.67;14.68;;;;;;;;;;4841330;29;20503;-72
2022/02/17 03:01:50;;;;;;;16.40;10.60;;;;;;;;;;4845232;29;20034;-72
2022/02/17 03:04:16;;;;;;;11.07;9.13;;;;;;;;;;4837556;29;20038;-72
2022/02/17 03:06:42;;;;;;;11.73;9.57;;;;;;;;;;4844833;29;20469;-72
2022/02/17 03:09:08;;;;;;;9.93;7.97;;;;;;;;;;4844057;29;20041;-71
2022/02/17 03:11:34;;;;;;;13.50;9.48;;;;;;;;;;4842464;29;20038;-72
2022/02/17 03:14:01;;;;;;;7.43;5.07;;;;;;;;;;4835203;29;20065;-72
2022/02/17 03:16:30;;;;;;;9.57;5.63;;;;;;;;;;4855768;29;20109;-72
2022/02/17 03:18:57;;;;;;;8.27;5.13;;;;;;;;;;4845432;29;20128;-71
2022/02/17 03:21:23;;;;;;;7.85;4.55;;;;;;;;;;4849534;29;20037;-72
2022/02/17 03:23:49;;;;;;;13.95;9.48;;;;;;;;;;4832085;29;20042;-72
2022/02/17 03:26:15;;;;;;;14.10;9.63;;;;;;;;;;4849101;29;20388;-72
2022/02/17 03:28:41;;;;;;;11.05;6.55;;;;;;;;;;4847379;29;20046;-71
2022/02/17 03:31:07;;;;;;;11.05;8.55;;;;;;;;;;4838220;29;20034;-72
2022/02/17 03:33:33;;;;;;;8.75;5.55;;;;;;;;;;4847217;29;20484;-72
2022/02/17 03:35:59;;;;;;;8.00;4.93;;;;;;;;;;4840964;29;20030;-72
2022/02/17 03:38:25;;;;;;;11.13;6.63;;;;;;;;;;4849240;29;20477;-72
2022/02/17 03:40:51;;;;;;;10.52;8.73;;;;;;;;;;4841713;29;20037;-71
2022/02/17 03:43:17;;;;;;;9.80;8.27;;;;;;;;;;4848706;29;20048;-72
2022/02/17 03:45:44;;;;;;;12.05;8.82;;;;;;;;;;4838034;29;20030;-71
2022/02/17 03:48:09;;;;;;;12.45;9.00;;;;;;;;;;4841075;29;20052;-72
2022/02/17 03:50:35;;;;;;;11.02;7.53;;;;;;;;;;4842987;29;20021;-72
2022/02/17 03:53:01;;;;;;;15.18;9.18;;;;;;;;;;4850281;29;20045;-71
2022/02/17 03:55:27;;;;;;;11.25;9.18;;;;;;;;;;4857711;29;20064;-72
2022/02/17 03:57:54;;;;;;;11.70;7.90;;;;;;;;;;4854799;29;20156;-73
2022/02/17 04:00:20;;;;;;;12.05;7.20;;;;;;;;;;4840450;29;20030;-72
2022/02/17 04:02:46;;;;;;;12.73;8.27;;;;;;;;;;4848852;29;20104;-72
2022/02/17 04:05:12;;;;;;;12.65;7.72;;;;;;;;;;4845916;29;20035;-71
2022/02/17 04:07:39;;;;;;;10.90;6.55;;;;;;;;;;4855900;29;20079;-72
2022/02/17 04:10:05;;;;;;;11.68;8.20;;;;;;;;;;4845906;29;20034;-72
2022/02/17 04:12:31;;;;;;;10.45;7.55;;;;;;;;;;4853795;29;20064;-71
2022/02/17 04:14:57;;;;;;;12.82;9.73;;;;;;;;;;4851757;29;20459;-71
2022/02/17 04:17:23;;;;;;;14.10;8.27;;;;;;;;;;4850039;29;20049;-71
2022/02/17 04:19:50;;;;;;;9.63;6.35;;;;;;;;;;4858551;29;20030;-71
2022/02/17 04:22:16;;;;;;;7.93;5.82;;;;;;;;;;4851749;29;20118;-72
2022/02/17 04:24:42;;;;;;;8.05;4.65;;;;;;;;;;4850867;29;20033;-72
2022/02/17 04:27:08;;;;;;;9.52;6.38;;;;;;;;;;4843169;29;20049;-72
2022/02/17 04:29:35;;;;;;;8.15;5.40;;;;;;;;;;4854051;29;20061;-71
2022/02/17 04:32:01;;;;;;;9.35;6.57;;;;;;;;;;4852019;29;20546;-72
2022/02/17 04:34:27;;;;;;;13.90;8.70;;;;;;;;;;4843832;29;20029;-71
2022/02/17 04:36:53;;;;;;;11.50;7.15;;;;;;;;;;4843394;29;20069;-72
2022/02/17 04:39:19;;;;;;;9.02;6.00;;;;;;;;;;4844972;29;20121;-72
2022/02/17 04:44:30;;;;;;;13.90;8.18;;;;;;;;;;4845843;29;20044;-72
2022/02/17 04:46:56;;;;;;;14.32;9.15;;;;;;;;;;4856449;29;20046;-71
2022/02/17 04:49:22;;;;;;;13.38;8.63;;;;;;;;;;4849879;29;20037;-72
2022/02/17 04:51:48;;;;;;;14.00;11.15;;;;;;;;;;4854786;29;20124;-72
2022/02/17 04:54:14;;;;;;;12.82;9.35;;;;;;;;;;4847522;29;20765;-72
2022/02/17 04:56:40;;;;;;;13.77;10.30;;;;;;;;;;4839956;29;20053;-71
2022/02/17 04:59:06;;;;;;;16.00;9.18;;;;;;;;;;4845973;29;20502;-71
2022/02/17 05:01:32;;;;;;;27.08;24.00;;;;;;;;;;4840014;29;20065;-72
2022/02/17 05:03:58;;;;;;;10.10;5.90;;;;;;;;;;4857581;29;20030;-72
2022/02/17 05:06:24;;;;;;;8.30;5.28;;;;;;;;;;4846984;29;20391;-71
2022/02/17 05:08:50;;;;;;;16.63;7.88;;;;;;;;;;4839651;29;20030;-71
2022/02/17 05:11:16;;;;;;;16.17;9.32;;;;;;;;;;4848952;29;20038;-72
2022/02/17 05:13:42;;;;;;;11.48;7.07;;;;;;;;;;4847730;29;20059;-72
2022/02/17 05:16:08;;;;;;;7.40;4.22;;;;;;;;;;4844884;29;20038;-72
2022/02/17 05:18:35;;;;;;;8.20;5.00;;;;;;;;;;4852101;29;20082;-71
2022/02/17 05:21:01;;;;;;;10.82;7.97;;;;;;;;;;4842276;29;20751;-72
2022/02/17 05:23:27;;;;;;;16.55;10.88;;;;;;;;;;4853808;29;20379;-72
2022/02/17 05:25:53;;;;;;;13.88;9.10;;;;;;;;;;4847750;29;20034;-71
2022/02/17 05:28:19;;;;;;;12.07;8.45;;;;;;;;;;4856480;29;20041;-71
2022/02/17 05:30:45;;;;;;;8.88;6.30;;;;;;;;;;4839799;29;20040;-72
2022/02/17 05:33:12;;;;;;;14.60;9.05;;;;;;;;;;4845662;29;20104;-71
2022/02/17 05:35:38;;;;;;;6.53;3.95;;;;;;;;;;4847126;29;20116;-71
2022/02/17 05:38:05;;;;;;;6.60;4.15;;;;;;;;;;4832669;29;20800;-71
2022/02/17 05:40:31;;;;;;;5.63;3.92;;;;;;;;;;4839271;29;20472;-71
2022/02/17 05:42:57;;;;;;;8.43;3.97;;;;;;;;;;4840419;29;20388;-72
2022/02/17 05:45:23;;;;;;;6.82;3.10;;;;;;;;;;4842185;29;20034;-72
2022/02/17 05:47:49;;;;;;;7.95;4.35;;;;;;;;;;4853224;29;20490;-72
2022/02/17 05:50:15;;;;;;;10.57;6.95;;;;;;;;;;4850663;29;20026;-71
2022/02/17 05:52:41;;;;;;;12.05;9.65;;;;;;;;;;4842508;29;20077;-72
2022/02/17 05:55:08;;;;;;;15.30;11.07;;;;;;;;;;4842449;29;20061;-72
2022/02/17 05:57:34;;;;;;;10.32;6.80;;;;;;;;;;4850248;29;20061;-72
2022/02/17 06:00:00;;;;;;;6.72;4.43;;;;;;;;;;4849668;29;20044;-71
2022/02/17 06:02:26;;;;;;;8.27;3.58;;;;;;;;;;4849376;29;20037;-72
2022/02/17 06:04:53;;;;;;;7.80;5.32;;;;;;;;;;4850084;29;20034;-71
2022/02/17 06:07:19;;;;;;;10.38;7.05;;;;;;;;;;4838153;29;20052;-72
2022/02/17 06:09:45;;;;;;;8.10;5.30;;;;;;;;;;4844150;29;20070;-72
2022/02/17 06:12:11;;;;;;;7.15;4.65;;;;;;;;;;4857173;29;20116;-72
2022/02/17 06:14:38;;;;;;;8.77;5.72;;;;;;;;;;4846060;29;20114;-72
2022/02/17 06:17:04;;;;;;;9.68;6.43;;;;;;;;;;4839978;29;20092;-72
2022/02/17 06:19:30;;;;;;;10.82;7.30;;;;;;;;;;4840453;29;20084;-72
2022/02/17 06:21:56;;;;;;;12.55;8.85;;;;;;;;;;4845220;29;20086;-72
2022/02/17 06:24:22;;;;;;;13.40;10.38;;;;;;;;;;4838778;29;20034;-72
2022/02/17 06:26:48;;;;;;;17.83;13.10;;;;;;;;;;4837920;29;20053;-72
2022/02/17 06:29:14;;;;;;;19.50;11.95;;;;;;;;;;4839835;29;20045;-71
2022/02/17 06:31:40;;;;;;;17.77;10.45;;;;;;;;;;4847646;29;20046;-71
2022/02/17 06:34:06;;;;;;;16.98;9.90;;;;;;;;;;4834988;29;20030;-72
2022/02/17 06:36:32;;;;;;;17.25;12.13;;;;;;;;;;4841498;29;20476;-71
2022/02/17 06:38:58;;;;;;;25.63;16.40;;;;;;;;;;4837698;29;20040;-71
2022/02/17 06:41:25;;;;;;;23.38;13.98;;;;;;;;;;4836760;29;20077;-72
2022/02/17 06:43:51;;;;;;;20.58;14.98;;;;;;;;;;4838115;29;20075;-71
2022/02/17 06:46:17;;;;;;;44.65;35.55;;;;;;;;;;4837313;29;20098;-71
2022/02/17 06:48:43;;;;;;;21.58;18.63;;;;;;;;;;4823823;29;20038;-72
2022/02/17 06:51:09;;;;;;;32.90;28.48;;;;;;;;;;4835178;29;20518;-71
2022/02/17 06:53:35;;;;;;;34.55;24.33;;;;;;;;;;4836700;29;20037;-71
2022/02/17 06:56:01;;;;;;;21.95;16.00;;;;;;;;;;4844222;29;20046;-72
2022/02/17 06:58:27;;;;;;;24.88;18.20;;;;;;;;;;4843650;29;20050;-72
2022/02/17 07:00:53;;;;;;;20.33;13.93;;;;;;;;;;4822581;29;20041;-72
2022/02/17 07:03:19;;;;;;;18.23;12.40;;;;;;;;;;4837351;29;20443;-72
2022/02/17 07:05:45;;;;;;;24.77;15.95;;;;;;;;;;4837382;29;20037;-72
2022/02/17 07:08:12;;;;;;;12.95;9.10;;;;;;;;;;4822491;29;20075;-71
2022/02/17 07:10:56;;;;;;;21.65;13.70;;;;;;;;;;4822969;29;20042;-72
2022/02/17 07:13:23;;;;;;;20.75;13.10;;;;;;;;;;4838815;29;20037;-72
2022/02/17 07:15:49;;;;;;;16.77;10.90;;;;;;;;;;4849138;29;20033;-71
2022/02/17 07:18:16;;;;;;;17.02;11.10;;;;;;;;;;4842159;29;20559;-72
2022/02/17 07:20:43;;;;;;;24.33;13.73;;;;;;;;;;4836391;29;20034;-72
2022/02/17 07:23:09;;;;;;;20.25;17.88;;;;;;;;;;4840655;29;20107;-71
2022/02/17 07:25:35;;;;;;;8.07;5.22;;;;;;;;;;4841489;29;20045;-72
2022/02/17 07:28:01;;;;;;;8.85;6.68;;;;;;;;;;4841259;29;20041;-72
2022/02/17 07:30:28;;;;;;;10.90;7.20;;;;;;;;;;4843788;29;20029;-71
2022/02/17 07:32:54;;;;;;;14.35;9.07;;;;;;;;;;4841282;29;20027;-71
2022/02/17 07:35:20;;;;;;;17.88;11.00;;;;;;;;;;4841847;29;20037;-71
2022/02/17 07:37:46;;;;;;;14.48;9.80;;;;;;;;;;4843357;29;20030;-72
2022/02/17 07:40:15;;;;;;;25.65;16.55;;;;;;;;;;4846732;29;20048;-72
2022/02/17 07:42:42;;;;;;;23.83;14.25;;;;;;;;;;4849884;29;20452;-72
2022/02/17 07:45:09;;;;;;;16.08;9.15;;;;;;;;;;4827502;29;20046;-71
2022/02/17 07:47:36;;;;;;;23.90;12.10;;;;;;;;;;4848246;29;20397;-71
2022/02/17 07:50:02;;;;;;;24.48;17.27;;;;;;;;;;4840805;29;20557;-71
2022/02/17 07:52:28;;;;;;;15.48;10.00;;;;;;;;;;4841344;29;20484;-71
2022/02/17 07:54:54;;;;;;;13.93;9.40;;;;;;;;;;4840463;29;20049;-71
2022/02/17 07:57:20;;;;;;;16.17;9.73;;;;;;;;;;4854799;29;20053;-72
2022/02/17 07:59:46;;;;;;;22.27;15.10;;;;;;;;;;4844352;29;20434;-72
2022/02/17 08:02:12;;;;;;;20.13;12.73;;;;;;;;;;4840843;29;20030;-71
2022/02/17 08:04:38;;;;;;;15.65;10.75;;;;;;;;;;4847967;29;20046;-71
2022/02/17 08:07:05;;;;;;;11.50;7.25;;;;;;;;;;4846998;29;20186;-71
2022/02/17 08:09:31;;;;;;;11.65;7.10;;;;;;;;;;4842891;29;20041;-72
2022/02/17 08:11:57;;;;;;;16.02;8.38;;;;;;;;;;4844660;29;20485;-72
2022/02/17 08:14:23;;;;;;;18.13;11.75;;;;;;;;;;4847134;29;20041;-72
2022/02/17 08:16:49;;;;;;;16.13;11.85;;;;;;;;;;4844246;29;20045;-72
2022/02/17 08:19:15;;;;;;;20.25;12.77;;;;;;;;;;4845595;29;20037;-71
2022/02/17 08:21:42;;;;;;;17.73;10.32;;;;;;;;;;4840480;29;20038;-72
2022/02/17 08:24:08;;;;;;;18.90;9.07;;;;;;;;;;4840887;29;20041;-71
2022/02/17 08:26:34;;;;;;;7.97;4.97;;;;;;;;;;4840577;29;20046;-71
2022/02/17 08:29:00;;;;;;;13.18;5.63;;;;;;;;;;4840921;29;20050;-71
2022/02/17 08:31:26;;;;;;;15.07;5.70;;;;;;;;;;4840202;29;20113;-72
2022/02/17 08:33:53;;;;;;;7.93;4.72;;;;;;;;;;4840492;29;20030;-72
2022/02/17 08:36:19;;;;;;;10.05;5.85;;;;;;;;;;4839608;29;20045;-72
2022/02/17 08:38:45;;;;;;;11.40;5.40;;;;;;;;;;4840453;29;20469;-71
2022/02/17 08:41:11;;;;;;;7.93;4.70;;;;;;;;;;4839245;29;20045;-72
2022/02/17 08:43:38;;;;;;;12.32;6.22;;;;;;;;;;4849044;29;20045;-71
2022/02/17 08:46:04;;;;;;;13.35;7.97;;;;;;;;;;4845327;29;20104;-72
2022/02/17 08:48:30;;;;;;;12.73;6.50;;;;;;;;;;4852403;29;20583;-72
2022/02/17 08:50:56;;;;;;;9.20;6.00;;;;;;;;;;4849736;29;20034;-72
2022/02/17 08:53:22;;;;;;;10.05;6.80;;;;;;;;;;4840349;29;20069;-72
2022/02/17 08:55:48;;;;;;;19.20;11.43;;;;;;;;;;4847796;29;20057;-71
2022/02/17 08:58:14;;;;;;;12.80;7.65;;;;;;;;;;4841176;29;20058;-72
2022/02/17 09:00:40;;;;;;;10.02;4.70;;;;;;;;;;4829649;29;20070;-72
2022/02/17 09:03:11;;;;;;;4.65;1.65;;;;;;;;;;4853111;29;20487;-72
2022/02/17 09:05:37;;;;;;;5.60;1.90;;;;;;;;;;4838285;29;20033;-72
2022/02/17 09:08:03;;;;;;;6.37;3.13;;;;;;;;;;4842017;29;20037;-72
2022/02/17 09:10:29;;;;;;;9.85;3.22;;;;;;;;;;4827914;29;20040;-72
2022/02/17 09:12:55;;;;;;;5.97;3.20;;;;;;;;;;4840770;29;20046;-72
2022/02/17 09:15:21;;;;;;;6.10;2.42;;;;;;;;;;4839729;29;20582;-72
2022/02/17 09:17:48;;;;;;;7.57;3.08;;;;;;;;;;4839561;29;20120;-71
2022/02/17 09:20:15;;;;;;;7.07;3.70;;;;;;;;;;4847165;29;20598;-72
2022/02/17 09:22:42;;;;;;;9.32;5.07;;;;;;;;;;4838453;29;20073;-72
2022/02/17 09:25:08;;;;;;;10.10;6.85;;;;;;;;;;4844168;29;20070;-72
2022/02/17 09:27:34;;;;;;;12.00;6.88;;;;;;;;;;4838410;29;20049;-72
2022/02/17 09:30:01;;;;;;;11.50;6.57;;;;;;;;;;4839202;29;20042;-72
2022/02/17 09:32:27;;;;;;;9.00;5.72;;;;;;;;;;4842226;29;20041;-72
2022/02/17 09:34:53;;;;;;;9.75;6.30;;;;;;;;;;4843129;29;20036;-72
2022/02/17 09:37:19;;;;;;;9.60;5.38;;;;;;;;;;4838820;29;20118;-72
2022/02/17 09:39:45;;;;;;;9.95;5.05;;;;;;;;;;4841470;29;20061;-72
2022/02/17 09:42:12;;;;;;;8.43;4.65;;;;;;;;;;4838211;29;20042;-72
2022/02/17 09:44:40;;;;;;;10.65;4.45;;;;;;;;;;4842562;29;20041;-72
2022/02/17 09:47:07;;;;;;;11.80;5.82;;;;;;;;;;4838777;29;20053;-72
2022/02/17 09:49:34;;;;;;;14.80;7.75;;;;;;;;;;4838150;29;20137;-72
2022/02/17 09:52:00;;;;;;;11.38;6.97;;;;;;;;;;4836308;29;20086;-72
2022/02/17 09:54:26;;;;;;;13.93;6.75;;;;;;;;;;4838630;29;20030;-72
2022/02/17 09:56:52;;;;;;;11.65;6.25;;;;;;;;;;4841284;29;20054;-71
2022/02/17 09:59:19;;;;;;;13.35;5.05;;;;;;;;;;4838025;29;20036;-71
2022/02/17 10:01:55;;;;;;;12.02;6.15;;;;;;;;;;4843389;29;20042;-72
2022/02/17 10:04:22;;;;;;;10.00;5.10;;;;;;;;;;4831971;29;20038;-71
2022/02/17 10:06:48;;;;;;;13.65;6.85;;;;;;;;;;4845891;29;20069;-72
2022/02/17 10:09:15;;;;;;;6.50;2.60;;;;;;;;;;4839028;29;20038;-72
2022/02/17 10:11:41;;;;;;;5.63;1.80;;;;;;;;;;4851618;29;20061;-72
2022/02/17 10:14:09;;;;;;;4.07;1.13;;;;;;;;;;4838852;29;20109;-72
2022/02/17 10:16:55;;;;;;;6.63;1.15;;;;;;;;;;4838524;29;20480;-72
2022/02/17 10:19:22;;;;;;;5.65;1.75;;;;;;;;;;4838525;29;20034;-72
2022/02/17 10:21:48;;;;;;;7.28;2.22;;;;;;;;;;4812020;29;20481;-71
2022/02/17 10:24:31;;;;;;;8.80;3.80;;;;;;;;;;4837426;29;20461;-72
2022/02/17 10:27:03;;;;;;;6.93;3.00;;;;;;;;;;4830863;29;20129;-72
2022/02/17 10:29:29;;;;;;;5.38;2.20;;;;;;;;;;4818938;29;20046;-72
2022/02/17 10:32:12;;;;;;;6.88;2.85;;;;;;;;;;4841249;29;20064;-72
2022/02/17 10:34:39;;;;;;;11.20;5.88;;;;;;;;;;4837319;29;20048;-71
2022/02/17 10:37:05;;;;;;;14.98;10.60;;;;;;;;;;4838211;29;20034;-72
2022/02/17 10:39:37;;;;;;;27.63;19.75;;;;;;;;;;4836883;29;20306;-71
2022/02/17 10:42:05;;;;;;;16.60;10.13;;;;;;;;;;4849075;29;20046;-72
2022/02/17 10:44:31;;;;;;;11.65;6.97;;;;;;;;;;4844415;29;20690;-72
2022/02/17 10:46:57;;;;;;;15.43;8.25;;;;;;;;;;4843515;29;20050;-72
2022/02/17 10:49:23;;;;;;;10.13;6.85;;;;;;;;;;4840183;29;20034;-71
2022/02/17 10:51:51;;;;;;;8.20;5.60;;;;;;;;;;4836424;29;20042;-72
2022/02/17 10:54:21;;;;;;;7.75;4.18;;;;;;;;;;4841804;29;20514;-71
2022/02/17 10:56:51;;;;;;;8.48;4.22;;;;;;;;;;4843443;29;20054;-71
2022/02/17 11:02:02;;;;;;;6.50;4.32;;;;;;;;;;4836701;29;20057;-72
2022/02/17 11:04:29;;;;;;;9.20;4.20;;;;;;;;;;4843694;29;20545;-71
2022/02/17 11:06:55;;;;;;;12.63;3.95;;;;;;;;;;4837628;29;20141;-72
2022/02/17 11:09:21;;;;;;;11.85;6.32;;;;;;;;;;4838046;29;20045;-72
2022/02/17 11:11:51;;;;;;;34.50;26.90;;;;;;;;;;4838786;29;20521;-71
2022/02/17 11:14:35;;;;;;;4.28;1.73;;;;;;;;;;4834037;29;20026;-71
2022/02/17 11:17:02;;;;;;;4.60;1.23;;;;;;;;;;4836105;29;20046;-71
2022/02/17 11:19:28;;;;;;;3.30;0.90;;;;;;;;;;4842194;29;20064;-72
2022/02/17 11:21:54;;;;;;;3.30;0.82;;;;;;;;;;4842090;29;20081;-71
2022/02/17 11:24:20;;;;;;;3.38;1.13;;;;;;;;;;4843424;29;20360;-72
2022/02/17 11:26:46;;;;;;;5.15;2.17;;;;;;;;;;4833083;29;20121;-72
2022/02/17 11:29:25;;;;;;;8.00;4.80;;;;;;;;;;4835482;29;20034;-71
2022/02/17 11:31:55;;;;;;;7.97;4.53;;;;;;;;;;4846251;29;20044;-71
2022/02/17 11:34:44;;;;;;;8.05;4.18;;;;;;;;;;4840472;29;20363;-72
2022/02/17 11:37:30;;;;;;;7.93;5.03;;;;;;;;;;4836252;29;20053;-71
2022/02/17 11:40:00;;;;;;;4.40;1.35;;;;;;;;;;4830233;29;20053;-71
2022/02/17 11:42:36;;;;;;;5.18;1.20;;;;;;;;;;4837311;29;20045;-71
2022/02/17 11:45:18;;;;;;;6.95;1.58;;;;;;;;;;4845964;29;20034;-72
2022/02/17 11:48:02;;;;;;;4.70;2.00;;;;;;;;;;4840844;29;20121;-72
2022/02/17 11:50:32;;;;;;;2.25;0.80;;;;;;;;;;4836192;29;20066;-72
2022/02/17 11:53:17;;;;;;;5.68;2.13;;;;;;;;;;4840210;29;20548;-71
2022/02/17 11:55:43;;;;;;;5.80;3.22;;;;;;;;;;4836436;29;20163;-72
2022/02/17 11:58:44;;;;;;;7.43;3.63;;;;;;;;;;4837031;29;20057;-71
2022/02/17 12:01:23;;;;;;;5.50;1.95;;;;;;;;;;4746859;30;20809;-71
2022/02/17 12:03:59;;;;;;;3.03;1.83;;;;;;;;;;4821314;29;20050;-72
2022/02/17 12:06:33;;;;;;;2.03;0.73;;;;;;;;;;4833533;29;20597;-71
2022/02/17 12:08:59;;;;;;;2.08;0.68;;;;;;;;;;4831173;29;20524;-72
2022/02/17 12:11:36;;;;;;;1.33;0.55;;;;;;;;;;4840209;29;20067;-71
2022/02/17 12:14:04;;;;;;;1.95;0.60;;;;;;;;;;4837716;29;20462;-72
2022/02/17 12:16:40;;;;;;;2.22;0.70;;;;;;;;;;4838318;29;20034;-72
2022/02/17 12:19:09;;;;;;;2.45;0.75;;;;;;;;;;4839949;29;20049;-72
2022/02/17 12:21:37;;;;;;;1.38;0.50;;;;;;;;;;4845644;29;20042;-72
2022/02/17 12:24:03;;;;;;;1.70;0.43;;;;;;;;;;4836310;29;20638;-72
2022/02/17 12:26:41;;;;;;;2.10;0.60;;;;;;;;;;4841469;29;20161;-72
2022/02/17 12:29:26;;;;;;;3.05;1.38;;;;;;;;;;4838541;29;20049;-72
2022/02/17 12:31:53;;;;;;;2.65;1.10;;;;;;;;;;4839248;29;20030;-72
2022/02/17 12:34:19;;;;;;;4.63;2.13;;;;;;;;;;4836980;29;20057;-72
2022/02/17 12:36:45;;;;;;;2.58;0.80;;;;;;;;;;4846447;29;20520;-71
2022/02/17 12:39:12;;;;;;;3.22;1.25;;;;;;;;;;4841366;29;20472;-72
2022/02/17 12:41:38;;;;;;;2.28;0.93;;;;;;;;;;4839710;29;20079;-72
2022/02/17 12:44:07;;;;;;;2.15;0.73;;;;;;;;;;4840140;29;20523;-72
2022/02/17 12:46:33;;;;;;;3.00;1.27;;;;;;;;;;4840642;29;20042;-72
2022/02/17 12:49:17;;;;;;;3.90;0.80;;;;;;;;;;4846513;29;20053;-71
2022/02/17 12:51:43;;;;;;;3.53;0.90;;;;;;;;;;4838856;29;20980;-72
2022/02/17 12:54:12;;;;;;;2.25;0.85;;;;;;;;;;4841176;29;20045;-72
2022/02/17 12:56:38;;;;;;;6.00;1.05;;;;;;;;;;4847884;29;20042;-72
2022/02/17 12:59:06;;;;;;;3.00;0.88;;;;;;;;;;4838251;29;20077;-71
2022/02/17 13:01:33;;;;;;;3.40;1.20;;;;;;;;;;4843535;29;20060;-72
2022/02/17 13:03:59;;;;;;;7.57;1.67;;;;;;;;;;4847063;29;20057;-72
2022/02/17 13:06:26;;;;;;;3.75;1.60;;;;;;;;;;4839644;29;20042;-72
2022/02/17 13:08:56;;;;;;;5.72;1.17;;;;;;;;;;4820442;29;20030;-71
2022/02/17 13:11:25;;;;;;;4.60;1.38;;;;;;;;;;4839871;29;20563;-72
2022/02/17 13:14:05;;;;;;;5.18;2.10;;;;;;;;;;4839181;29;20489;-71
2022/02/17 13:16:32;;;;;;;10.02;3.17;;;;;;;;;;4847801;29;20049;-72
2022/02/17 13:18:58;;;;;;;6.75;1.70;;;;;;;;;;4843231;29;20094;-71
2022/02/17 13:21:24;;;;;;;2.55;1.00;;;;;;;;;;4843194;29;20112;-72
2022/02/17 13:24:06;;;;;;;2.95;1.20;;;;;;;;;;4842807;29;20062;-71
2022/02/17 13:26:33;;;;;;;3.33;0.93;;;;;;;;;;4841897;29;20065;-71
2022/02/17 13:29:00;;;;;;;7.20;2.88;;;;;;;;;;4838226;29;20038;-71
2022/02/17 13:31:29;;;;;;;3.75;1.13;;;;;;;;;;4839803;29;20532;-71
2022/02/17 13:34:05;;;;;;;4.97;1.88;;;;;;;;;;4830256;29;20086;-71
2022/02/17 13:36:32;;;;;;;8.23;1.73;;;;;;;;;;4838154;29;20041;-71
2022/02/17 13:39:16;;;;;;;7.45;3.45;;;;;;;;;;4840735;29;20149;-72
2022/02/17 13:42:01;;;;;;;3.38;1.02;;;;;;;;;;4842449;29;20045;-72
2022/02/17 13:44:33;;;;;;;4.00;0.80;;;;;;;;;;4840134;29;20209;-71
2022/02/17 13:47:00;;;;;;;3.08;0.80;;;;;;;;;;4839165;29;20060;-72
2022/02/17 13:49:26;;;;;;;2.67;0.55;;;;;;;;;;4840890;29;20170;-71
2022/02/17 13:51:52;;;;;;;3.72;1.02;;;;;;;;;;4842160;29;20129;-71
2022/02/17 13:54:18;;;;;;;1.92;0.40;;;;;;;;;;4824850;29;20087;-71
2022/02/17 13:56:44;;;;;;;2.22;0.57;;;;;;;;;;4843152;29;20497;-71
2022/02/17 13:59:11;;;;;;;2.25;0.60;;;;;;;;;;4826636;29;20053;-71
2022/02/17 14:01:38;;;;;;;2.22;0.60;;;;;;;;;;4841362;29;20034;-71
2022/02/17 14:04:04;;;;;;;5.82;1.02;;;;;;;;;;4842489;29;20096;-71
2022/02/17 14:06:31;;;;;;;3.00;0.98;;;;;;;;;;4839677;29;20038;-72
2022/02/17 14:08:57;;;;;;;4.25;0.70;;;;;;;;;;4844995;29;20196;-71
2022/02/17 14:11:23;;;;;;;3.50;0.90;;;;;;;;;;4839213;29;20030;-72
2022/02/17 14:13:49;;;;;;;1.85;0.63;;;;;;;;;;4834132;29;20038;-71
2022/02/17 14:16:16;;;;;;;2.53;0.70;;;;;;;;;;4843887;29;20074;-72
2022/02/17 14:18:42;;;;;;;6.50;1.88;;;;;;;;;;4841859;29;20045;-71
2022/02/17 14:21:08;;;;;;;6.43;2.10;;;;;;;;;;4838825;29;20045;-72
2022/02/17 14:23:34;;;;;;;3.45;1.20;;;;;;;;;;4824173;29;20041;-71
2022/02/17 14:26:04;;;;;;;6.75;2.42;;;;;;;;;;4837549;29;20045;-71
2022/02/17 14:28:31;;;;;;;6.32;1.77;;;;;;;;;;4837901;29;20145;-71
2022/02/17 14:30:57;;;;;;;4.57;1.13;;;;;;;;;;4845794;29;20037;-71
2022/02/17 14:33:23;;;;;;;3.05;0.93;;;;;;;;;;4846654;29;20053;-71
2022/02/17 14:35:49;;;;;;;6.05;0.73;;;;;;;;;;4824516;29;20428;-72
2022/02/17 14:38:16;;;;;;;4.10;1.35;;;;;;;;;;4822427;29;20069;-71
2022/02/17 14:40:43;;;;;;;11.57;3.40;;;;;;;;;;4839153;29;20485;-73